Alligator Point, Florida
Current Conditions -  °F | °C
As of 5:53 AM on Sunday 26 Oct 2014 (Local Time) from KTLH Reporting Station
Clear Clear  
Wind Chill:   Ceiling: Unl
Heat Index:   Visibility: 10mi
Dew Point:   Wind: 0mph
Humidity: 80%   Direction: NA
Pressure: 29.99"   Gusts: NA
Location:  30.0223°N, 84.3911°W
Report Text: KTLH 260953Z 00000KT 10SM CLR 09/06 A2999 RMK AO2 SLP153 FIRST AUGMENTED OBS T00890056 $
Loading
Personal Weather Stations






























Interactive Weather Map
Tropical Storm Tracking
New forecast layout! Learn more

10-Day Weather Forecast

Advertisements
Track Severe Weather on mobile